Time;durP1;ratioP1;P1;durP2;ratioP2;P2;SDS_P1;SDS_P2;PMS_P1;PMS_P2;Temp;Humidity;BMP_temperature;BMP_pressure;BME280_temperature;BME280_humidity;BME280_pressure;Samples;Min_cycle;Max_cycle;Signal;HPM_P1;HPM_P2
2023/09/10 00:00:49;;;;;;;28.75;22.38;;;;;;;21.27;100.00;101505.69;5116506;28;20463;-89
2023/09/10 00:03:20;;;;;;;30.52;22.67;;;;;;;21.24;100.00;101497.97;5116179;28;20548;-89
2023/09/10 00:05:45;;;;;;;30.63;22.80;;;;;;;21.21;100.00;101498.50;5099846;28;20085;-89
2023/09/10 00:08:11;;;;;;;27.95;22.23;;;;;;;21.19;100.00;101504.28;5115656;28;20019;-90
2023/09/10 00:10:39;;;;;;;28.03;22.67;;;;;;;21.15;100.00;101496.84;5098892;28;20440;-89
2023/09/10 00:13:05;;;;;;;32.15;23.45;;;;;;;21.05;100.00;101502.31;5115968;28;20371;-89
2023/09/10 00:15:32;;;;;;;29.23;21.97;;;;;;;21.01;100.00;101500.09;5115636;28;20024;-90
2023/09/10 00:17:58;;;;;;;34.20;24.02;;;;;;;20.96;100.00;101502.81;5117131;28;20031;-90
2023/09/10 00:20:27;;;;;;;28.57;22.50;;;;;;;20.94;100.00;101504.22;5115760;28;20035;-90
2023/09/10 00:22:55;;;;;;;28.55;23.42;;;;;;;20.83;100.00;101500.56;5115477;28;20427;-90
2023/09/10 00:25:21;;;;;;;35.45;23.30;;;;;;;20.79;100.00;101497.53;5115387;28;20027;-90
2023/09/10 00:27:49;;;;;;;32.83;23.33;;;;;;;20.76;100.00;101498.06;5115775;28;20391;-89
2023/09/10 00:30:14;;;;;;;32.85;22.55;;;;;;;20.78;100.00;101495.84;5098505;28;20035;-90
2023/09/10 00:32:44;;;;;;;32.60;23.83;;;;;;;20.73;100.00;101487.56;5115397;28;20038;-90
2023/09/10 00:35:10;;;;;;;27.63;22.33;;;;;;;20.76;100.00;101495.31;5115039;28;20119;-94
2023/09/10 00:37:44;;;;;;;28.33;21.90;;;;;;;20.74;100.00;101500.25;5116152;28;20107;-90
2023/09/10 00:40:10;;;;;;;24.43;21.27;;;;;;;20.71;100.00;101489.75;5115482;28;20055;-89
2023/09/10 00:42:37;;;;;;;26.88;22.45;;;;;;;20.68;100.00;101493.03;5116534;28;20036;-89
2023/09/10 00:45:06;;;;;;;32.25;22.05;;;;;;;20.66;100.00;101492.50;5115186;28;20054;-89
2023/09/10 00:47:32;;;;;;;26.10;21.05;;;;;;;20.60;100.00;101486.09;5116679;28;20062;-89
2023/09/10 00:50:05;;;;;;;29.10;21.63;;;;;;;20.57;100.00;101486.63;5114848;28;20063;-90
2023/09/10 00:52:35;;;;;;;29.45;22.35;;;;;;;20.57;100.00;101492.13;5115112;28;20039;-90
2023/09/10 00:55:01;;;;;;;29.60;22.75;;;;;;;20.54;100.00;101494.63;5098305;28;20031;-90
2023/09/10 00:57:27;;;;;;;33.40;22.57;;;;;;;20.54;100.00;101495.44;5115260;28;20027;-89
2023/09/10 00:59:53;;;;;;;29.10;22.33;;;;;;;20.50;100.00;101495.13;5114847;28;20130;-89
2023/09/10 01:02:20;;;;;;;29.50;22.35;;;;;;;20.49;100.00;101487.97;5114964;28;20019;-89
2023/09/10 01:04:48;;;;;;;33.83;23.98;;;;;;;20.48;100.00;101491.81;5114559;28;20376;-89
2023/09/10 01:07:16;;;;;;;31.80;22.63;;;;;;;20.46;100.00;101496.78;5115675;28;20038;-89
2023/09/10 01:09:46;;;;;;;35.33;23.25;;;;;;;20.43;100.00;101499.22;5114998;28;20118;-89
2023/09/10 01:12:28;;;;;;;33.40;23.70;;;;;;;20.39;100.00;101492.56;5097851;28;20051;-89
2023/09/10 01:15:08;;;;;;;32.70;24.52;;;;;;;20.40;100.00;101494.25;5114762;28;20114;-90
2023/09/10 01:18:01;;;;;;;28.90;24.92;;;;;;;20.38;100.00;101502.78;5114592;28;20031;-89
2023/09/10 01:21:02;;;;;;;33.13;24.40;;;;;;;20.32;100.00;101498.31;5114570;28;20093;-90
2023/09/10 01:23:49;;;;;;;32.85;24.85;;;;;;;20.31;100.00;101489.25;5073824;28;20127;-89
2023/09/10 01:26:14;;;;;;;34.33;25.97;;;;;;;20.26;100.00;101491.94;5114654;28;20092;-90
2023/09/10 01:28:42;;;;;;;30.80;24.90;;;;;;;20.26;100.00;101488.38;5114229;28;20023;-89
2023/09/10 01:31:10;;;;;;;27.83;23.70;;;;;;;20.28;100.00;101500.75;5114353;28;20425;-89
2023/09/10 01:33:43;;;;;;;32.53;25.70;;;;;;;20.23;100.00;101491.66;5113631;28;20080;-89
2023/09/10 01:36:14;;;;;;;32.47;25.73;;;;;;;20.25;100.00;101492.22;5113959;28;20065;-89
2023/09/10 01:39:13;;;;;;;34.55;25.13;;;;;;;20.26;100.00;101499.41;5114111;28;20429;-90
2023/09/10 01:41:40;;;;;;;31.77;24.70;;;;;;;20.25;100.00;101493.03;5113950;28;20047;-90
2023/09/10 01:44:07;;;;;;;35.73;26.20;;;;;;;20.25;100.00;101494.97;5115331;28;20035;-89
2023/09/10 01:46:36;;;;;;;31.33;25.90;;;;;;;20.25;100.00;101497.72;5114314;28;20032;-89
2023/09/10 01:49:02;;;;;;;33.28;25.83;;;;;;;20.25;100.00;101506.81;5113851;28;20023;-89
2023/09/10 01:51:28;;;;;;;35.28;27.23;;;;;;;20.24;100.00;101501.56;5114000;28;20034;-89
2023/09/10 01:53:53;;;;;;;34.03;26.37;;;;;;;20.21;100.00;101497.44;5113832;28;20502;-89
2023/09/10 01:56:22;;;;;;;34.53;27.43;;;;;;;20.19;100.00;101499.59;5114141;28;20115;-89
2023/09/10 01:58:47;;;;;;;38.83;27.02;;;;;;;20.18;100.00;101506.19;5097250;28;20063;-89
2023/09/10 02:01:22;;;;;;;35.97;27.30;;;;;;;20.19;100.00;101504.28;5096428;28;20475;-89
2023/09/10 02:03:48;;;;;;;32.47;27.33;;;;;;;20.18;100.00;101511.72;5113852;28;20373;-89
2023/09/10 02:06:13;;;;;;;34.83;27.50;;;;;;;20.17;100.00;101510.06;5114432;27;20495;-90
2023/09/10 02:08:41;;;;;;;36.20;28.70;;;;;;;20.15;100.00;101509.50;5113240;28;20031;-89
2023/09/10 02:11:09;;;;;;;34.20;26.80;;;;;;;20.13;100.00;101508.94;5113355;28;20036;-89
2023/09/10 02:13:35;;;;;;;40.67;28.33;;;;;;;20.12;100.00;101510.88;5114337;28;20126;-90
2023/09/10 02:16:00;;;;;;;35.97;28.63;;;;;;;20.12;100.00;101501.75;5115244;28;20106;-89
2023/09/10 02:18:28;;;;;;;36.70;28.87;;;;;;;20.12;100.00;101512.78;5113214;28;20383;-89
2023/09/10 02:20:54;;;;;;;36.95;29.38;;;;;;;20.11;100.00;101522.97;5113763;28;20031;-89
2023/09/10 02:23:20;;;;;;;37.07;29.40;;;;;;;20.09;100.00;101514.16;5114540;28;20391;-89
2023/09/10 02:25:56;;;;;;;;;;;;;;;;;;;;;
2023/09/10 02:28:24;;;;;;;38.33;30.17;;;;;;;20.05;100.00;101507.50;5114733;28;20463;-89
2023/09/10 02:30:55;;;;;;;40.63;31.52;;;;;;;20.07;100.00;101510.00;5113314;28;20081;-88
2023/09/10 02:33:20;;;;;;;43.95;32.97;;;;;;;20.02;100.00;101513.53;5096201;28;20039;-89
2023/09/10 02:35:46;;;;;;;42.77;32.43;;;;;;;20.05;100.00;101509.41;5113888;28;20070;-89
2023/09/10 02:38:13;;;;;;;45.73;32.07;;;;;;;20.03;100.00;101511.59;5114049;28;20460;-89
2023/09/10 02:40:43;;;;;;;46.60;34.35;;;;;;;20.00;100.00;101509.38;5112754;28;20539;-89
2023/09/10 02:43:11;;;;;;;47.50;33.80;;;;;;;19.99;100.00;101508.56;5113645;28;20027;-89
2023/09/10 02:45:41;;;;;;;38.90;32.92;;;;;;;20.02;100.00;101507.19;5112213;28;20027;-89
2023/09/10 02:48:07;;;;;;;47.08;35.63;;;;;;;19.95;100.00;101507.41;5096979;28;20486;-89
2023/09/10 02:50:38;;;;;;;45.90;35.73;;;;;;;19.92;100.00;101506.00;5113235;28;20027;-89
2023/09/10 02:53:13;;;;;;;;;;;;;;;;;;;;;
2023/09/10 02:55:39;;;;;;;48.75;36.95;;;;;;;19.85;100.00;101499.88;5115181;28;20031;-89
2023/09/10 02:58:06;;;;;;;49.40;36.97;;;;;;;19.86;100.00;101515.31;5112755;28;20436;-89
2023/09/10 03:00:41;;;;;;;51.03;37.53;;;;;;;19.87;100.00;101511.50;5113120;28;20035;-89
2023/09/10 03:03:06;;;;;;;47.30;37.20;;;;;;;19.88;100.00;101507.63;5113010;28;20027;-89
2023/09/10 03:05:36;;;;;;;51.53;38.88;;;;;;;19.82;100.00;101514.19;5112291;28;20080;-90
2023/09/10 03:08:02;;;;;;;54.05;39.75;;;;;;;19.81;100.00;101512.50;5112889;28;20042;-89
2023/09/10 03:10:30;;;;;;;50.33;39.30;;;;;;;19.78;100.00;101513.88;5113967;28;20106;-89
2023/09/10 03:12:55;;;;;;;50.10;38.47;;;;;;;19.78;100.00;101516.63;5095551;28;20047;-89
2023/09/10 03:15:23;;;;;;;57.03;39.20;;;;;;;19.80;100.00;101513.63;5112693;28;20482;-89
2023/09/10 03:17:54;;;;;;;54.05;41.85;;;;;;;19.76;100.00;101506.94;5112948;28;20039;-90
2023/09/10 03:20:19;;;;;;;51.80;38.72;;;;;;;19.77;100.00;101503.09;5095774;28;20126;-89
2023/09/10 03:22:45;;;;;;;52.80;40.90;;;;;;;19.76;100.00;101509.69;5113716;28;20066;-89
2023/09/10 03:25:10;;;;;;;52.47;40.57;;;;;;;19.77;100.00;101511.38;5113031;28;20035;-89
2023/09/10 03:27:36;;;;;;;53.05;40.95;;;;;;;19.75;100.00;101508.03;5113872;28;20482;-89
2023/09/10 03:30:05;;;;;;;53.33;41.40;;;;;;;19.78;100.00;101510.28;5113995;28;20032;-88
2023/09/10 03:32:30;;;;;;;48.80;41.00;;;;;;;19.73;100.00;101502.78;5112576;28;20486;-90
2023/09/10 03:34:56;;;;;;;53.70;41.63;;;;;;;19.71;100.00;101502.22;5112297;28;20035;-89
2023/09/10 03:37:22;;;;;;;55.47;42.27;;;;;;;19.72;100.00;101497.53;5112308;28;20277;-90
2023/09/10 03:39:47;;;;;;;56.13;41.47;;;;;;;19.71;100.00;101499.47;5112282;28;20491;-90
2023/09/10 03:42:13;;;;;;;51.63;41.63;;;;;;;19.71;100.00;101507.72;5113713;28;20032;-90
2023/09/10 03:44:38;;;;;;;55.43;42.13;;;;;;;19.66;100.00;101502.16;5112362;28;20492;-90
2023/09/10 03:47:06;;;;;;;52.30;42.23;;;;;;;19.67;100.00;101498.31;5112481;28;20035;-89
2023/09/10 03:49:31;;;;;;;52.40;42.17;;;;;;;19.67;100.00;101503.84;5112478;28;20061;-89
2023/09/10 03:52:00;;;;;;;49.47;40.87;;;;;;;19.70;100.00;101502.47;5112918;28;20031;-90
2023/09/10 03:54:28;;;;;;;55.13;43.08;;;;;;;19.67;100.00;101495.56;5095344;28;20429;-89
2023/09/10 03:56:54;;;;;;;53.17;42.33;;;;;;;19.68;100.00;101490.88;5112847;28;20036;-89
2023/09/10 03:59:21;;;;;;;52.07;41.87;;;;;;;19.64;100.00;101496.91;5115906;28;20114;-90
2023/09/10 04:01:47;;;;;;;49.78;40.83;;;;;;;19.62;100.00;101495.50;5115788;28;20126;-90
2023/09/10 04:04:13;;;;;;;53.63;42.10;;;;;;;19.62;100.00;101484.50;5117406;28;20027;-90
2023/09/10 04:06:38;;;;;;;47.07;39.17;;;;;;;19.60;100.00;101479.25;5115473;28;20510;-90
2023/09/10 04:09:04;;;;;;;53.53;40.63;;;;;;;19.62;100.00;101479.00;5117376;28;20040;-89
2023/09/10 04:11:29;;;;;;;52.25;41.38;;;;;;;19.61;100.00;101482.84;5115756;28;20023;-89
2023/09/10 04:13:58;;;;;;;55.83;42.50;;;;;;;19.59;100.00;101482.28;5115805;28;20038;-90
2023/09/10 04:16:24;;;;;;;56.10;44.00;;;;;;;19.58;100.00;101486.97;5116881;28;20500;-90
2023/09/10 04:18:50;;;;;;;52.67;41.27;;;;;;;19.57;100.00;101488.03;5116690;28;20103;-90
2023/09/10 04:21:15;;;;;;;50.45;40.08;;;;;;;19.57;100.00;101481.72;5115797;28;20467;-90
2023/09/10 04:23:43;;;;;;;47.93;40.20;;;;;;;19.55;100.00;101483.91;5115421;28;20034;-89
2023/09/10 04:26:12;;;;;;;51.67;42.42;;;;;;;19.54;100.00;101487.75;5115366;28;20429;-89
2023/09/10 04:28:40;;;;;;;50.35;39.47;;;;;;;19.53;100.00;101483.31;5115511;28;20047;-89
2023/09/10 04:31:14;;;;;;;50.57;40.20;;;;;;;19.51;100.00;101488.25;5115604;28;20037;-89
2023/09/10 04:33:45;;;;;;;54.65;41.63;;;;;;;19.50;100.00;101484.66;5115867;28;20039;-89
2023/09/10 04:36:13;;;;;;;52.58;40.40;;;;;;;19.52;100.00;101487.19;5116486;27;20051;-89
2023/09/10 04:38:39;;;;;;;49.40;39.05;;;;;;;19.48;100.00;101480.53;5115248;28;20034;-90
2023/09/10 04:41:04;;;;;;;50.40;39.57;;;;;;;19.49;100.00;101487.69;5116391;28;20138;-90
2023/09/10 04:43:35;;;;;;;49.13;39.47;;;;;;;19.50;100.00;101492.91;5115063;28;20035;-89
2023/09/10 04:46:02;;;;;;;51.00;39.45;;;;;;;19.48;100.00;101489.59;5098413;28;20023;-90
2023/09/10 04:48:30;;;;;;;50.90;39.63;;;;;;;19.47;100.00;101496.19;5115015;28;20047;-90
2023/09/10 04:50:56;;;;;;;52.97;39.97;;;;;;;19.44;100.00;101485.69;5115230;28;20033;-89
2023/09/10 04:53:21;;;;;;;49.43;40.03;;;;;;;19.45;100.00;101488.19;5114845;28;20036;-89
2023/09/10 04:55:54;;;;;;;47.42;38.55;;;;;;;19.45;100.00;101496.44;5117043;28;20028;-89
2023/09/10 04:58:19;;;;;;;48.30;37.83;;;;;;;19.45;100.00;101501.13;5115173;28;20546;-89
2023/09/10 05:00:45;;;;;;;50.05;39.13;;;;;;;19.42;100.00;101487.91;5098085;28;20126;-89
2023/09/10 05:03:13;;;;;;;48.70;38.53;;;;;;;19.41;100.00;101495.34;5114774;28;20028;-90
2023/09/10 05:05:41;;;;;;;46.90;38.67;;;;;;;19.42;100.00;101499.72;5114873;28;20032;-90
2023/09/10 05:08:09;;;;;;;54.38;39.78;;;;;;;19.40;100.00;101504.66;5114631;28;20455;-89
2023/09/10 05:10:34;;;;;;;49.35;39.85;;;;;;;19.39;100.00;101511.25;5114389;28;20028;-89
2023/09/10 05:13:02;;;;;;;51.77;40.83;;;;;;;19.38;100.00;101506.81;5114789;28;20114;-89
2023/09/10 05:15:30;;;;;;;49.45;39.33;;;;;;;19.36;100.00;101500.75;5114895;28;20080;-89
2023/09/10 05:17:58;;;;;;;51.67;41.05;;;;;;;19.39;100.00;101504.94;5114553;28;20489;-90
2023/09/10 05:20:23;;;;;;;51.75;40.53;;;;;;;19.39;100.00;101500.25;5115434;28;20039;-90
2023/09/10 05:22:51;;;;;;;52.43;40.27;;;;;;;19.41;100.00;101509.09;5114939;28;20527;-89
2023/09/10 05:25:16;;;;;;;49.15;39.58;;;;;;;19.41;100.00;101502.72;5097408;28;20039;-89
2023/09/10 05:27:42;;;;;;;51.90;39.93;;;;;;;19.43;100.00;101512.41;5114235;28;20123;-90
2023/09/10 05:30:07;;;;;;;49.63;39.47;;;;;;;19.44;100.00;101511.31;5114397;28;20448;-88
2023/09/10 05:32:33;;;;;;;50.58;40.97;;;;;;;19.47;100.00;101501.69;5114374;28;20027;-87
2023/09/10 05:34:58;;;;;;;49.37;38.37;;;;;;;19.49;100.00;101521.53;5097289;28;20075;-88
2023/09/10 05:37:24;;;;;;;49.63;38.50;;;;;;;19.52;100.00;101510.00;5114991;28;20043;-87
2023/09/10 05:39:49;;;;;;;46.87;39.50;;;;;;;19.55;100.00;101516.94;5114021;28;20161;-88
2023/09/10 05:42:15;;;;;;;50.23;39.17;;;;;;;19.57;100.00;101512.81;5114126;28;20756;-88
2023/09/10 05:44:40;;;;;;;53.20;39.07;;;;;;;19.61;100.00;101519.47;5080278;28;20376;-88
2023/09/10 05:47:05;;;;;;;48.63;38.93;;;;;;;19.62;100.00;101517.53;5097101;28;20027;-89
2023/09/10 05:49:33;;;;;;;48.35;39.67;;;;;;;19.64;100.00;101512.63;5080078;28;20053;-87
2023/09/10 05:51:58;;;;;;;48.97;38.57;;;;;;;19.70;100.00;101517.06;5097455;28;20036;-87
2023/09/10 05:54:23;;;;;;;53.55;39.67;;;;;;;19.72;100.00;101522.31;5113770;28;20501;-87
2023/09/10 05:56:49;;;;;;;46.27;36.70;;;;;;;19.78;100.00;101519.41;5096953;28;20039;-87
2023/09/10 05:59:14;;;;;;;46.53;37.07;;;;;;;19.84;100.00;101523.00;5096850;28;20403;-85
2023/09/10 06:01:40;;;;;;;46.40;38.20;;;;;;;19.87;100.00;101524.41;5113487;28;20035;-87
2023/09/10 06:04:05;;;;;;;47.40;37.17;;;;;;;19.92;100.00;101524.47;5113679;28;20434;-87
2023/09/10 06:06:31;;;;;;;45.43;37.03;;;;;;;19.99;100.00;101533.34;5114691;28;20272;-87
2023/09/10 06:08:56;;;;;;;50.97;37.23;;;;;;;20.00;100.00;101529.47;5113830;28;20023;-87
2023/09/10 06:11:21;;;;;;;47.17;35.50;;;;;;;20.05;100.00;101539.69;5113545;28;20429;-87
2023/09/10 06:13:47;;;;;;;46.30;35.23;;;;;;;20.11;100.00;101544.19;5114956;28;20028;-87
2023/09/10 06:16:12;;;;;;;47.83;35.55;;;;;;;20.18;100.00;101549.47;5114613;28;20036;-87
2023/09/10 06:18:40;;;;;;;47.80;35.43;;;;;;;20.24;100.00;101549.25;5113084;28;20043;-87
2023/09/10 06:21:05;;;;;;;43.78;34.60;;;;;;;20.30;100.00;101547.38;5113779;28;20035;-89
2023/09/10 06:23:31;;;;;;;45.33;34.53;;;;;;;20.33;100.00;101542.16;5079583;28;20372;-92
2023/09/10 06:25:56;;;;;;;39.87;33.73;;;;;;;20.38;100.00;101543.28;5113603;28;20364;-92
2023/09/10 06:28:24;;;;;;;46.13;34.50;;;;;;;20.42;100.00;101547.19;5096926;28;20523;-89
2023/09/10 06:30:51;;;;;;;42.77;33.73;;;;;;;20.48;100.00;101544.19;5113333;28;20081;-90
2023/09/10 06:33:19;;;;;;;43.33;34.10;;;;;;;20.56;100.00;101542.03;5113280;28;20028;-88
2023/09/10 06:35:45;;;;;;;44.85;33.42;;;;;;;20.63;100.00;101554.47;5113061;28;20039;-88
2023/09/10 06:38:18;;;;;;;40.30;32.70;;;;;;;20.70;100.00;101548.78;5113227;28;20038;-88
2023/09/10 06:40:51;;;;;;;38.20;31.92;;;;;;;20.78;100.00;101551.00;5096400;28;20055;-91
2023/09/10 06:43:19;;;;;;;40.45;33.33;;;;;;;20.84;100.00;101551.88;5113304;28;20120;-92
2023/09/10 06:45:45;;;;;;;42.60;31.98;;;;;;;20.92;100.00;101547.75;5113155;28;20053;-90
2023/09/10 06:48:12;;;;;;;38.97;30.47;;;;;;;20.99;100.00;101553.88;5112841;28;20028;-89
2023/09/10 06:50:44;;;;;;;36.53;30.00;;;;;;;21.08;100.00;101551.44;5112756;28;20024;-87
2023/09/10 06:53:10;;;;;;;39.00;29.60;;;;;;;21.17;100.00;101558.09;5095899;28;20043;-88
2023/09/10 06:55:46;;;;;;;33.47;28.63;;;;;;;21.24;100.00;101557.84;5113195;28;20114;-88
2023/09/10 06:58:17;;;;;;;40.47;29.02;;;;;;;21.34;100.00;101555.13;5113497;28;20032;-86
2023/09/10 07:00:42;;;;;;;35.50;28.98;;;;;;;21.39;100.00;101555.13;5114404;28;20524;-86
2023/09/10 07:03:11;;;;;;;38.07;28.80;;;;;;;21.49;100.00;101565.38;5114314;28;20028;-87
2023/09/10 07:05:43;;;;;;;36.72;27.50;;;;;;;21.56;100.00;101560.47;5112658;28;20032;-87
2023/09/10 07:08:11;;;;;;;36.33;26.17;;;;;;;21.63;100.00;101560.19;5114202;28;20462;-86
2023/09/10 07:10:37;;;;;;;32.92;25.55;;;;;;;21.70;100.00;101564.38;5114342;28;20031;-87
2023/09/10 07:13:05;;;;;;;33.70;25.45;;;;;;;21.82;100.00;101566.03;5095753;28;20035;-87
2023/09/10 07:15:31;;;;;;;33.03;24.77;;;;;;;21.92;100.00;101565.22;5112488;28;20024;-88
2023/09/10 07:17:56;;;;;;;31.20;23.52;;;;;;;22.00;100.00;101551.69;5112607;28;20138;-87
2023/09/10 07:20:22;;;;;;;33.80;23.33;;;;;;;22.12;100.00;101565.22;5112791;28;20035;-87
2023/09/10 07:22:47;;;;;;;29.07;22.53;;;;;;;22.18;100.00;101560.53;5112517;28;20039;-87
2023/09/10 07:25:13;;;;;;;27.70;20.93;;;;;;;22.30;100.00;101563.03;5112482;28;20066;-86
2023/09/10 07:27:38;;;;;;;29.02;21.67;;;;;;;22.39;100.00;101564.16;5096136;28;20027;-86
2023/09/10 07:30:04;;;;;;;30.13;20.63;;;;;;;22.45;100.00;101563.03;5113953;28;20432;-87
2023/09/10 07:32:32;;;;;;;30.23;20.60;;;;;;;22.54;100.00;101566.91;5097023;28;20032;-87
2023/09/10 07:34:57;;;;;;;29.03;21.03;;;;;;;22.61;100.00;101561.06;5099996;28;20059;-86
2023/09/10 07:37:28;;;;;;;28.90;21.02;;;;;;;22.69;100.00;101560.53;5099147;28;20123;-87
2023/09/10 07:39:56;;;;;;;25.57;19.43;;;;;;;22.77;100.00;101559.94;5116665;28;20558;-87
2023/09/10 07:42:22;;;;;;;26.80;19.95;;;;;;;22.86;100.00;101554.66;5116372;28;20023;-87
2023/09/10 07:44:47;;;;;;;30.23;20.13;;;;;;;22.96;99.90;101562.09;5099158;28;20031;-87
2023/09/10 07:47:13;;;;;;;24.47;19.90;;;;;;;23.05;99.86;101562.34;5117791;28;20028;-86
2023/09/10 07:49:38;;;;;;;27.27;18.83;;;;;;;23.16;99.64;101563.16;5116645;28;20291;-86
2023/09/10 07:52:04;;;;;;;22.50;18.30;;;;;;;23.22;98.69;101560.09;5116598;28;20035;-86
2023/09/10 07:54:31;;;;;;;20.33;17.33;;;;;;;23.34;98.83;101556.16;5116018;28;20471;-86
2023/09/10 07:56:56;;;;;;;22.92;17.05;;;;;;;23.41;98.10;101574.09;5115683;28;20024;-86
2023/09/10 07:59:22;;;;;;;21.97;15.60;;;;;;;23.49;98.07;101561.63;5099247;28;20034;-86
2023/09/10 08:01:50;;;;;;;26.23;17.98;;;;;;;23.56;97.05;101567.69;5116155;28;20372;-88
2023/09/10 08:04:15;;;;;;;21.50;16.73;;;;;;;23.64;96.72;101569.00;5099374;28;20028;-88
2023/09/10 08:06:41;;;;;;;24.38;16.60;;;;;;;23.74;95.11;101570.88;5115270;28;20023;-88
2023/09/10 08:09:07;;;;;;;23.70;15.33;;;;;;;23.83;95.81;101583.03;5115772;28;20026;-87
2023/09/10 08:11:37;;;;;;;21.00;14.80;;;;;;;23.91;95.13;101578.84;5115879;28;20027;-88
2023/09/10 08:14:02;;;;;;;20.23;14.55;;;;;;;24.01;94.88;101586.25;5115785;28;20065;-88
2023/09/10 08:16:28;;;;;;;18.90;13.98;;;;;;;24.07;94.17;101577.59;5098784;28;20035;-89
2023/09/10 08:18:56;;;;;;;21.63;14.00;;;;;;;24.17;93.68;101587.78;5116001;28;20063;-88
2023/09/10 08:21:23;;;;;;;25.70;13.55;;;;;;;24.28;93.85;101577.44;5099037;28;20058;-88
2023/09/10 08:23:52;;;;;;;18.83;13.32;;;;;;;24.34;92.34;101577.09;5115909;28;20036;-88
2023/09/10 08:26:20;;;;;;;20.20;13.00;;;;;;;24.44;92.15;101576.16;5098873;28;20040;-88
2023/09/10 08:28:46;;;;;;;19.73;13.05;;;;;;;24.54;91.18;101566.94;5116298;28;20034;-88
2023/09/10 08:31:22;;;;;;;18.23;12.33;;;;;;;24.63;91.02;101575.47;5116561;28;20032;-89
2023/09/10 08:33:48;;;;;;;18.67;12.50;;;;;;;24.71;89.61;101568.44;5099634;28;20278;-89
2023/09/10 08:36:13;;;;;;;16.27;11.98;;;;;;;24.77;89.90;101565.31;5115039;28;20028;-89
2023/09/10 08:38:38;;;;;;;23.03;12.23;;;;;;;24.89;89.25;101572.41;5115491;28;20080;-88
2023/09/10 08:41:40;;;;;;;17.33;12.30;;;;;;;24.98;90.25;101577.03;5115018;28;20100;-88
2023/09/10 08:44:09;;;;;;;20.27;11.70;;;;;;;25.08;88.83;101570.50;5084137;28;20558;-88
2023/09/10 08:46:38;;;;;;;16.33;11.55;;;;;;;25.15;88.52;101578.50;5116804;28;20031;-89
2023/09/10 08:49:04;;;;;;;15.45;10.15;;;;;;;25.22;87.03;101576.19;5115198;28;20076;-87
2023/09/10 08:51:34;;;;;;;12.67;9.90;;;;;;;25.28;86.41;101576.94;5114929;28;20530;-87
2023/09/10 08:54:01;;;;;;;15.02;9.55;;;;;;;25.34;86.75;101576.59;5114931;28;20112;-88
2023/09/10 08:56:27;;;;;;;14.38;9.57;;;;;;;25.49;86.45;101578.34;5115410;28;20382;-88
2023/09/10 08:58:55;;;;;;;17.13;10.05;;;;;;;25.57;86.39;101568.53;5116220;28;20024;-88
2023/09/10 09:01:27;;;;;;;13.00;9.73;;;;;;;25.68;84.99;101577.53;5115711;28;20439;-87
2023/09/10 09:03:52;;;;;;;18.67;9.82;;;;;;;25.74;84.87;101573.56;5114986;28;20035;-88
2023/09/10 09:06:23;;;;;;;16.95;9.80;;;;;;;25.89;84.79;101581.63;5115592;28;20463;-88
2023/09/10 09:08:59;;;;;;;12.77;9.40;;;;;;;25.97;84.90;101577.38;5114959;28;20119;-87
2023/09/10 09:11:27;;;;;;;15.25;9.73;;;;;;;26.06;84.20;101570.03;5114942;28;20031;-88
2023/09/10 09:13:54;;;;;;;14.85;8.85;;;;;;;26.18;83.25;101575.09;5114552;28;20032;-87
2023/09/10 09:16:20;;;;;;;14.60;8.93;;;;;;;26.30;82.05;101574.63;5114692;28;20061;-88
2023/09/10 09:18:48;;;;;;;13.23;8.80;;;;;;;26.38;82.08;101567.53;5097557;28;20028;-87
2023/09/10 09:21:23;;;;;;;14.75;9.10;;;;;;;26.46;82.28;101563.22;5114423;28;20063;-88
2023/09/10 09:24:01;;;;;;;15.82;8.90;;;;;;;26.61;81.51;101568.50;5115058;28;20024;-88
2023/09/10 09:26:28;;;;;;;16.13;9.10;;;;;;;26.77;80.91;101566.28;5115482;28;20379;-88
2023/09/10 09:28:57;;;;;;;17.55;8.82;;;;;;;26.87;80.47;101565.25;5097702;28;20038;-88
2023/09/10 09:31:24;;;;;;;16.90;8.97;;;;;;;26.95;79.59;101572.91;5114202;28;20030;-88
2023/09/10 09:33:50;;;;;;;18.10;8.50;;;;;;;27.09;77.61;101559.81;5115285;28;20119;-88
2023/09/10 09:36:16;;;;;;;15.93;8.90;;;;;;;27.18;78.05;101559.91;5113784;28;20031;-88
2023/09/10 09:38:48;;;;;;;21.70;8.27;;;;;;;27.37;77.17;101565.38;5114160;28;20107;-88
2023/09/10 09:41:14;;;;;;;15.70;7.60;;;;;;;27.54;75.99;101566.66;5114044;28;20411;-88
2023/09/10 09:43:44;;;;;;;12.68;8.02;;;;;;;27.67;75.57;101554.66;5114017;28;20076;-88
2023/09/10 09:46:10;;;;;;;19.45;7.90;;;;;;;27.79;74.79;101546.53;5113819;28;20019;-89
2023/09/10 09:48:36;;;;;;;13.40;7.80;;;;;;;27.93;74.89;101549.28;5113954;28;20062;-88
2023/09/10 09:51:08;;;;;;;15.98;8.35;;;;;;;28.09;73.75;101548.94;5115351;28;20107;-88
2023/09/10 09:53:36;;;;;;;12.33;7.80;;;;;;;28.25;72.77;101546.56;5113890;28;20102;-88
2023/09/10 09:56:05;;;;;;;14.27;7.50;;;;;;;28.40;71.88;101543.34;5113265;28;20039;-88
2023/09/10 09:58:31;;;;;;;12.63;6.90;;;;;;;28.48;70.23;101542.59;5096783;28;20387;-89
2023/09/10 10:01:00;;;;;;;15.38;7.00;;;;;;;28.52;70.00;101543.59;5113660;28;20028;-89
2023/09/10 10:03:31;;;;;;;13.27;6.60;;;;;;;28.50;69.20;101542.28;5113714;28;20046;-89
2023/09/10 10:05:56;;;;;;;14.15;7.00;;;;;;;28.71;67.64;101542.56;5113497;28;20020;-91
2023/09/10 10:08:29;;;;;;;14.32;6.70;;;;;;;28.89;68.15;101540.63;5113178;28;20031;-87
2023/09/10 10:10:55;;;;;;;12.07;6.57;;;;;;;29.13;66.63;101543.03;5115787;28;20039;-86
2023/09/10 10:13:23;;;;;;;12.15;6.05;;;;;;;29.32;64.91;101541.91;5113254;28;20394;-87
2023/09/10 10:15:54;;;;;;;16.85;6.57;;;;;;;29.46;65.53;101537.00;5113650;28;20031;-88
2023/09/10 10:18:22;;;;;;;11.45;6.38;;;;;;;29.62;63.20;101534.56;5096661;28;20024;-89
2023/09/10 10:20:49;;;;;;;10.52;6.68;;;;;;;29.86;63.25;101539.66;5114569;28;20028;-86
2023/09/10 10:23:31;;;;;;;14.67;6.73;;;;;;;30.07;62.14;101538.97;5114197;28;20027;-91
2023/09/10 10:26:06;;;;;;;12.52;6.40;;;;;;;30.25;60.84;101532.19;5113104;28;20035;-91
2023/09/10 10:28:55;;;;;;;7.90;6.03;;;;;;;30.53;61.64;101533.75;5114609;28;20031;-91
2023/09/10 10:31:50;;;;;;;12.15;6.10;;;;;;;30.66;60.78;101524.31;5101888;28;20043;-91
2023/09/10 10:34:32;;;;;;;13.02;5.70;;;;;;;30.91;59.61;101527.31;5113367;28;20035;-92
2023/09/10 10:37:25;;;;;;;;;;;;;;;;;;;;;
2023/09/10 10:40:08;;;;;;;16.65;5.90;;;;;;;31.36;57.91;101526.75;5114867;28;20054;-92
2023/09/10 10:43:13;;;;;;;11.32;6.05;;;;;;;31.60;57.91;101523.28;5112921;28;20487;-92
2023/09/10 10:45:46;;;;;;;15.18;6.10;;;;;;;31.80;54.80;101518.81;5113117;28;20109;-91
2023/09/10 10:48:20;;;;;;;13.30;6.07;;;;;;;32.07;54.97;101522.16;5113173;28;20027;-91
2023/09/10 10:50:51;;;;;;;11.80;5.63;;;;;;;32.34;53.75;101509.50;5112699;28;20551;-92
2023/09/10 10:53:23;;;;;;;13.02;6.10;;;;;;;32.56;52.75;101515.84;5113494;28;20024;-91
2023/09/10 10:56:04;;;;;;;9.57;5.88;;;;;;;32.87;52.67;101512.47;5112932;28;20027;-91
2023/09/10 10:58:34;;;;;;;12.40;6.05;;;;;;;32.91;51.06;101508.94;5112937;28;20383;-91
2023/09/10 11:01:03;;;;;;;10.07;6.22;;;;;;;33.11;51.09;101510.78;5112658;28;20039;-91
2023/09/10 11:03:34;;;;;;;12.57;6.00;;;;;;;33.59;49.30;101508.22;5112555;28;20088;-91
2023/09/10 11:06:07;;;;;;;17.15;6.03;;;;;;;33.86;49.10;101503.78;5113032;28;20027;-91
2023/09/10 11:08:45;;;;;;;20.67;5.72;;;;;;;34.38;48.62;101506.78;5112216;28;20038;-91
2023/09/10 11:11:41;;;;;;;12.60;6.05;;;;;;;35.30;48.12;101501.75;5112671;28;20023;-92
2023/09/10 11:14:18;;;;;;;14.38;5.80;;;;;;;38.22;40.88;101499.84;5112571;28;20028;-92
2023/09/10 11:17:23;;;;;;;18.23;5.60;;;;;;;40.21;38.57;101494.00;5097022;28;20039;-92